sensor_id;sensor_type;location;lat;lon;timestamp;pressure;altitude;pressure_sealevel;temperature;humidity
57827;BME280;43656;57.746;11.780;2023-04-21T00:00:18;102643.22;;;10.99;42.99
57827;BME280;43656;57.746;11.780;2023-04-21T00:02:44;102652.84;;;11.01;42.61
57827;BME280;43656;57.746;11.780;2023-04-21T00:05:11;102645.31;;;11.05;42.96
57827;BME280;43656;57.746;11.780;2023-04-21T00:07:38;102641.19;;;10.93;43.05
57827;BME280;43656;57.746;11.780;2023-04-21T00:10:07;102641.84;;;10.95;43.10
57827;BME280;43656;57.746;11.780;2023-04-21T00:12:33;102638.09;;;10.88;43.02
57827;BME280;43656;57.746;11.780;2023-04-21T00:14:58;102633.19;;;10.83;43.69
57827;BME280;43656;57.746;11.780;2023-04-21T00:17:24;102646.28;;;10.78;43.37
57827;BME280;43656;57.746;11.780;2023-04-21T00:19:50;102646.75;;;10.73;43.75
57827;BME280;43656;57.746;11.780;2023-04-21T00:22:16;102632.13;;;10.58;44.38
57827;BME280;43656;57.746;11.780;2023-04-21T00:24:41;102644.59;;;10.59;43.71
57827;BME280;43656;57.746;11.780;2023-04-21T00:27:07;102590.44;;;10.26;44.05
57827;BME280;43656;57.746;11.780;2023-04-21T00:29:32;102641.97;;;10.49;44.30
57827;BME280;43656;57.746;11.780;2023-04-21T00:31:58;102641.28;;;10.47;44.44
57827;BME280;43656;57.746;11.780;2023-04-21T00:34:23;102639.91;;;10.43;44.58
57827;BME280;43656;57.746;11.780;2023-04-21T00:36:49;102635.81;;;10.39;44.66
57827;BME280;43656;57.746;11.780;2023-04-21T00:39:14;102627.41;;;10.24;44.91
57827;BME280;43656;57.746;11.780;2023-04-21T00:41:40;102615.47;;;10.09;44.82
57827;BME280;43656;57.746;11.780;2023-04-21T00:44:08;102632.06;;;10.22;44.72
57827;BME280;43656;57.746;11.780;2023-04-21T00:46:34;102627.31;;;10.16;45.04
57827;BME280;43656;57.746;11.780;2023-04-21T00:49:03;102629.84;;;10.18;45.14
57827;BME280;43656;57.746;11.780;2023-04-21T00:51:29;102625.06;;;10.11;45.32
57827;BME280;43656;57.746;11.780;2023-04-21T00:53:57;102633.56;;;10.17;44.92
57827;BME280;43656;57.746;11.780;2023-04-21T00:56:25;102639.06;;;10.15;45.09
57827;BME280;43656;57.746;11.780;2023-04-21T00:58:51;102622.69;;;10.08;45.37
57827;BME280;43656;57.746;11.780;2023-04-21T01:01:17;102625.53;;;10.07;45.14
57827;BME280;43656;57.746;11.780;2023-04-21T01:03:43;102629.06;;;10.07;45.21
57827;BME280;43656;57.746;11.780;2023-04-21T01:06:09;102645.50;;;10.04;45.50
57827;BME280;43656;57.746;11.780;2023-04-21T01:08:35;102641.91;;;9.86;45.87
57827;BME280;43656;57.746;11.780;2023-04-21T01:11:08;102637.13;;;9.80;46.25
57827;BME280;43656;57.746;11.780;2023-04-21T01:13:34;102635.50;;;9.69;46.05
57827;BME280;43656;57.746;11.780;2023-04-21T01:16:00;102632.84;;;9.59;46.74
57827;BME280;43656;57.746;11.780;2023-04-21T01:18:25;102631.88;;;9.60;46.87
57827;BME280;43656;57.746;11.780;2023-04-21T01:20:51;102585.75;;;9.28;47.27
57827;BME280;43656;57.746;11.780;2023-04-21T01:23:16;102625.91;;;9.57;46.44
57827;BME280;43656;57.746;11.780;2023-04-21T01:25:43;102627.09;;;9.54;46.79
57827;BME280;43656;57.746;11.780;2023-04-21T01:28:08;102622.25;;;9.58;46.97
57827;BME280;43656;57.746;11.780;2023-04-21T01:30:34;102623.66;;;9.62;46.64
57827;BME280;43656;57.746;11.780;2023-04-21T01:32:59;102620.38;;;9.68;46.69
57827;BME280;43656;57.746;11.780;2023-04-21T01:35:25;102628.13;;;9.71;46.80
57827;BME280;43656;57.746;11.780;2023-04-21T01:37:50;102624.84;;;9.77;47.17
57827;BME280;43656;57.746;11.780;2023-04-21T01:40:15;102619.31;;;9.79;46.67
57827;BME280;43656;57.746;11.780;2023-04-21T01:42:42;102621.72;;;9.82;46.39
57827;BME280;43656;57.746;11.780;2023-04-21T01:45:08;102591.38;;;9.62;46.63
57827;BME280;43656;57.746;11.780;2023-04-21T01:47:35;102618.38;;;9.70;46.98
57827;BME280;43656;57.746;11.780;2023-04-21T01:50:00;102621.91;;;9.71;47.35
57827;BME280;43656;57.746;11.780;2023-04-21T01:52:26;102620.91;;;9.72;46.96
57827;BME280;43656;57.746;11.780;2023-04-21T01:54:51;102622.91;;;9.70;47.15
57827;BME280;43656;57.746;11.780;2023-04-21T01:57:17;102627.13;;;9.72;46.95
57827;BME280;43656;57.746;11.780;2023-04-21T01:59:44;102622.22;;;9.68;46.55
57827;BME280;43656;57.746;11.780;2023-04-21T02:02:09;102628.59;;;9.57;47.79
57827;BME280;43656;57.746;11.780;2023-04-21T02:04:35;102599.03;;;9.20;47.58
57827;BME280;43656;57.746;11.780;2023-04-21T02:07:00;102628.53;;;9.39;47.86
57827;BME280;43656;57.746;11.780;2023-04-21T02:09:26;102619.66;;;9.29;47.35
57827;BME280;43656;57.746;11.780;2023-04-21T02:11:51;102618.84;;;9.18;47.69
57827;BME280;43656;57.746;11.780;2023-04-21T02:14:17;102622.97;;;9.03;47.95
57827;BME280;43656;57.746;11.780;2023-04-21T02:16:42;102623.69;;;8.96;48.25
57827;BME280;43656;57.746;11.780;2023-04-21T02:19:08;102624.44;;;8.88;49.06
57827;BME280;43656;57.746;11.780;2023-04-21T02:21:33;102608.75;;;8.74;49.01
57827;BME280;43656;57.746;11.780;2023-04-21T02:23:59;102627.81;;;8.80;49.25
57827;BME280;43656;57.746;11.780;2023-04-21T02:26:24;102622.03;;;8.75;49.35
57827;BME280;43656;57.746;11.780;2023-04-21T02:28:50;102615.97;;;8.63;49.52
57827;BME280;43656;57.746;11.780;2023-04-21T02:31:16;102615.97;;;8.63;49.94
57827;BME280;43656;57.746;11.780;2023-04-21T02:33:41;102618.91;;;8.60;49.79
57827;BME280;43656;57.746;11.780;2023-04-21T02:36:07;102590.13;;;8.43;49.87
57827;BME280;43656;57.746;11.780;2023-04-21T02:38:32;102583.44;;;8.37;50.11
57827;BME280;43656;57.746;11.780;2023-04-21T02:40:58;102595.94;;;8.38;50.32
57827;BME280;43656;57.746;11.780;2023-04-21T02:43:23;102588.13;;;8.26;50.46
57827;BME280;43656;57.746;11.780;2023-04-21T02:45:49;102612.72;;;8.40;50.37
57827;BME280;43656;57.746;11.780;2023-04-21T02:48:15;102609.34;;;8.38;50.19
57827;BME280;43656;57.746;11.780;2023-04-21T02:50:44;102608.50;;;8.38;50.36
57827;BME280;43656;57.746;11.780;2023-04-21T02:53:10;102609.88;;;8.32;50.73
57827;BME280;43656;57.746;11.780;2023-04-21T02:55:35;102612.81;;;8.29;50.66
57827;BME280;43656;57.746;11.780;2023-04-21T02:58:01;102615.22;;;8.22;51.19
57827;BME280;43656;57.746;11.780;2023-04-21T03:00:26;102605.59;;;8.10;50.86
57827;BME280;43656;57.746;11.780;2023-04-21T03:02:52;102606.28;;;8.03;51.06
57827;BME280;43656;57.746;11.780;2023-04-21T03:05:17;102606.41;;;8.01;51.23
57827;BME280;43656;57.746;11.780;2023-04-21T03:07:46;102610.25;;;7.98;51.64
57827;BME280;43656;57.746;11.780;2023-04-21T03:10:11;102606.53;;;7.90;52.08
57827;BME280;43656;57.746;11.780;2023-04-21T03:12:36;102605.25;;;7.84;52.60
57827;BME280;43656;57.746;11.780;2023-04-21T03:15:02;102603.00;;;7.89;52.10
57827;BME280;43656;57.746;11.780;2023-04-21T03:17:28;102594.94;;;7.80;52.06
57827;BME280;43656;57.746;11.780;2023-04-21T03:19:53;102599.47;;;7.79;52.41
57827;BME280;43656;57.746;11.780;2023-04-21T03:22:20;102600.31;;;7.80;52.32
57827;BME280;43656;57.746;11.780;2023-04-21T03:24:45;102575.16;;;7.71;52.60
57827;BME280;43656;57.746;11.780;2023-04-21T03:27:11;102598.78;;;7.87;52.45
57827;BME280;43656;57.746;11.780;2023-04-21T03:29:36;102585.91;;;7.81;52.86
57827;BME280;43656;57.746;11.780;2023-04-21T03:32:02;102553.59;;;7.63;53.02
57827;BME280;43656;57.746;11.780;2023-04-21T03:34:27;102590.72;;;7.77;52.98
57827;BME280;43656;57.746;11.780;2023-04-21T03:36:53;102595.78;;;7.80;53.14
57827;BME280;43656;57.746;11.780;2023-04-21T03:39:20;102603.72;;;7.82;53.50
57827;BME280;43656;57.746;11.780;2023-04-21T03:41:45;102587.03;;;7.68;53.18
57827;BME280;43656;57.746;11.780;2023-04-21T03:44:11;102599.59;;;7.77;53.63
57827;BME280;43656;57.746;11.780;2023-04-21T03:46:36;102586.03;;;7.69;53.81
57827;BME280;43656;57.746;11.780;2023-04-21T03:49:02;102600.13;;;7.71;53.69
57827;BME280;43656;57.746;11.780;2023-04-21T03:51:27;102589.84;;;7.67;54.03
57827;BME280;43656;57.746;11.780;2023-04-21T03:53:53;102593.34;;;7.67;53.56
57827;BME280;43656;57.746;11.780;2023-04-21T03:56:18;102584.06;;;7.62;53.97
57827;BME280;43656;57.746;11.780;2023-04-21T03:58:44;102587.00;;;7.59;54.12
57827;BME280;43656;57.746;11.780;2023-04-21T04:01:10;102590.81;;;7.66;54.42
57827;BME280;43656;57.746;11.780;2023-04-21T04:03:35;102589.41;;;7.71;53.88
57827;BME280;43656;57.746;11.780;2023-04-21T04:06:01;102589.72;;;7.78;53.74
57827;BME280;43656;57.746;11.780;2023-04-21T04:08:28;102593.56;;;7.85;53.98
57827;BME280;43656;57.746;11.780;2023-04-21T04:10:54;102589.84;;;8.46;52.99
57827;BME280;43656;57.746;11.780;2023-04-21T04:13:19;102580.50;;;9.26;50.49
57827;BME280;43656;57.746;11.780;2023-04-21T04:15:46;102588.63;;;9.99;49.07
57827;BME280;43656;57.746;11.780;2023-04-21T04:18:12;102583.63;;;10.50;48.04
57827;BME280;43656;57.746;11.780;2023-04-21T04:20:38;102579.06;;;10.94;46.16
57827;BME280;43656;57.746;11.780;2023-04-21T04:23:03;102576.09;;;11.32;45.26
57827;BME280;43656;57.746;11.780;2023-04-21T04:25:29;102578.78;;;11.66;44.96
57827;BME280;43656;57.746;11.780;2023-04-21T04:27:55;102569.13;;;11.97;44.08
57827;BME280;43656;57.746;11.780;2023-04-21T04:30:21;102585.38;;;12.46;43.19
57827;BME280;43656;57.746;11.780;2023-04-21T04:32:48;102579.78;;;12.81;42.76
57827;BME280;43656;57.746;11.780;2023-04-21T04:35:13;102588.22;;;13.02;41.97
57827;BME280;43656;57.746;11.780;2023-04-21T04:37:40;102554.66;;;12.88;41.85
57827;BME280;43656;57.746;11.780;2023-04-21T04:40:06;102583.19;;;12.83;42.00
57827;BME280;43656;57.746;11.780;2023-04-21T04:42:36;102570.50;;;13.00;41.87
57827;BME280;43656;57.746;11.780;2023-04-21T04:45:04;102585.97;;;13.78;40.86
57827;BME280;43656;57.746;11.780;2023-04-21T04:47:30;102578.22;;;14.29;39.57
57827;BME280;43656;57.746;11.780;2023-04-21T04:49:55;102564.00;;;14.50;39.12
57827;BME280;43656;57.746;11.780;2023-04-21T04:52:21;102573.59;;;14.61;39.07
57827;BME280;43656;57.746;11.780;2023-04-21T04:54:46;102568.84;;;14.63;39.26
57827;BME280;43656;57.746;11.780;2023-04-21T04:57:12;102564.47;;;14.76;39.10
57827;BME280;43656;57.746;11.780;2023-04-21T04:59:37;102548.81;;;14.87;38.38
57827;BME280;43656;57.746;11.780;2023-04-21T05:02:02;102561.22;;;14.96;38.77
57827;BME280;43656;57.746;11.780;2023-04-21T05:04:28;102543.97;;;14.97;38.33
57827;BME280;43656;57.746;11.780;2023-04-21T05:06:53;102557.31;;;15.28;37.94
57827;BME280;43656;57.746;11.780;2023-04-21T05:09:19;102545.91;;;15.47;37.69
57827;BME280;43656;57.746;11.780;2023-04-21T05:11:45;102542.69;;;15.59;37.16
57827;BME280;43656;57.746;11.780;2023-04-21T05:14:10;102557.56;;;15.78;37.13
57827;BME280;43656;57.746;11.780;2023-04-21T05:16:36;102558.59;;;16.13;36.41
57827;BME280;43656;57.746;11.780;2023-04-21T05:19:02;102552.06;;;16.07;36.69
57827;BME280;43656;57.746;11.780;2023-04-21T05:21:28;102546.19;;;15.23;37.42
57827;BME280;43656;57.746;11.780;2023-04-21T05:23:54;102552.06;;;13.90;40.03
57827;BME280;43656;57.746;11.780;2023-04-21T05:26:21;102552.88;;;13.20;41.73
57827;BME280;43656;57.746;11.780;2023-04-21T05:28:47;102534.41;;;12.68;42.62
57827;BME280;43656;57.746;11.780;2023-04-21T05:31:12;102542.50;;;12.68;42.87
57827;BME280;43656;57.746;11.780;2023-04-21T05:33:37;102534.91;;;12.63;43.09
57827;BME280;43656;57.746;11.780;2023-04-21T05:36:10;102562.28;;;12.52;43.22
57827;BME280;43656;57.746;11.780;2023-04-21T05:38:37;102553.16;;;12.45;43.56
57827;BME280;43656;57.746;11.780;2023-04-21T05:41:03;102551.63;;;12.51;43.60
57827;BME280;43656;57.746;11.780;2023-04-21T05:43:28;102555.66;;;12.55;43.59
57827;BME280;43656;57.746;11.780;2023-04-21T05:46:14;102550.78;;;12.50;43.67
57827;BME280;43656;57.746;11.780;2023-04-21T05:48:39;102553.34;;;12.52;43.85
57827;BME280;43656;57.746;11.780;2023-04-21T05:53:36;102566.16;;;12.50;44.28
57827;BME280;43656;57.746;11.780;2023-04-21T05:56:02;102559.56;;;12.68;43.92
57827;BME280;43656;57.746;11.780;2023-04-21T05:58:27;102549.25;;;12.80;43.72
57827;BME280;43656;57.746;11.780;2023-04-21T06:00:53;102550.59;;;12.84;44.08
57827;BME280;43656;57.746;11.780;2023-04-21T06:03:18;102545.69;;;12.96;44.43
57827;BME280;43656;57.746;11.780;2023-04-21T06:05:43;102549.31;;;13.36;43.89
57827;BME280;43656;57.746;11.780;2023-04-21T06:08:09;102541.69;;;13.39;44.03
57827;BME280;43656;57.746;11.780;2023-04-21T06:10:35;102539.94;;;13.55;43.30
57827;BME280;43656;57.746;11.780;2023-04-21T06:13:00;102543.69;;;13.77;42.94
57827;BME280;43656;57.746;11.780;2023-04-21T06:15:25;102536.63;;;13.99;42.21
57827;BME280;43656;57.746;11.780;2023-04-21T06:17:54;102519.56;;;14.21;41.97
57827;BME280;43656;57.746;11.780;2023-04-21T06:20:20;102531.81;;;14.55;41.08
57827;BME280;43656;57.746;11.780;2023-04-21T06:22:45;102534.06;;;14.51;40.98
57827;BME280;43656;57.746;11.780;2023-04-21T06:25:11;102538.19;;;14.62;40.88
57827;BME280;43656;57.746;11.780;2023-04-21T06:27:36;102523.53;;;14.71;40.39
57827;BME280;43656;57.746;11.780;2023-04-21T06:30:01;102536.56;;;14.91;40.38
57827;BME280;43656;57.746;11.780;2023-04-21T06:32:27;102524.69;;;14.77;40.41
57827;BME280;43656;57.746;11.780;2023-04-21T06:34:52;102522.06;;;14.98;40.37
57827;BME280;43656;57.746;11.780;2023-04-21T06:37:18;102522.91;;;14.99;40.27
57827;BME280;43656;57.746;11.780;2023-04-21T06:39:43;102523.38;;;15.17;39.98
57827;BME280;43656;57.746;11.780;2023-04-21T06:42:09;102511.97;;;15.22;39.49
57827;BME280;43656;57.746;11.780;2023-04-21T06:44:35;102492.44;;;15.12;39.55
57827;BME280;43656;57.746;11.780;2023-04-21T06:47:02;102484.63;;;15.38;39.32
57827;BME280;43656;57.746;11.780;2023-04-21T06:49:27;102499.88;;;15.90;38.93
57827;BME280;43656;57.746;11.780;2023-04-21T06:51:53;102495.06;;;16.35;38.53
57827;BME280;43656;57.746;11.780;2023-04-21T06:54:18;102501.84;;;16.74;37.82
57827;BME280;43656;57.746;11.780;2023-04-21T06:56:44;102490.22;;;16.80;37.30
57827;BME280;43656;57.746;11.780;2023-04-21T06:59:09;102500.03;;;17.16;36.96
57827;BME280;43656;57.746;11.780;2023-04-21T07:01:35;102493.84;;;17.35;36.34
57827;BME280;43656;57.746;11.780;2023-04-21T07:04:00;102480.03;;;17.37;36.31
57827;BME280;43656;57.746;11.780;2023-04-21T07:06:26;102503.09;;;17.48;36.04
57827;BME280;43656;57.746;11.780;2023-04-21T07:08:51;102499.41;;;17.62;36.00
57827;BME280;43656;57.746;11.780;2023-04-21T07:11:16;102491.91;;;17.77;35.56
57827;BME280;43656;57.746;11.780;2023-04-21T07:13:42;102498.03;;;17.93;35.38
57827;BME280;43656;57.746;11.780;2023-04-21T07:16:07;102494.69;;;18.11;35.06
57827;BME280;43656;57.746;11.780;2023-04-21T07:18:33;102495.75;;;18.10;34.86
57827;BME280;43656;57.746;11.780;2023-04-21T07:20:59;102491.13;;;18.23;34.41
57827;BME280;43656;57.746;11.780;2023-04-21T07:23:25;102489.06;;;18.32;34.06
57827;BME280;43656;57.746;11.780;2023-04-21T07:25:50;102479.22;;;18.38;33.75
57827;BME280;43656;57.746;11.780;2023-04-21T07:28:16;102483.75;;;18.70;33.28
57827;BME280;43656;57.746;11.780;2023-04-21T07:30:41;102482.34;;;18.74;33.23
57827;BME280;43656;57.746;11.780;2023-04-21T07:33:07;102486.06;;;18.87;33.28
57827;BME280;43656;57.746;11.780;2023-04-21T07:35:33;102480.63;;;18.87;33.59
57827;BME280;43656;57.746;11.780;2023-04-21T07:37:58;102480.44;;;18.75;33.27
57827;BME280;43656;57.746;11.780;2023-04-21T07:40:24;102486.31;;;18.52;33.52
57827;BME280;43656;57.746;11.780;2023-04-21T07:42:49;102485.25;;;18.66;34.77
57827;BME280;43656;57.746;11.780;2023-04-21T07:45:15;102482.75;;;17.92;35.79
57827;BME280;43656;57.746;11.780;2023-04-21T07:47:40;102483.75;;;17.23;36.09
57827;BME280;43656;57.746;11.780;2023-04-21T07:50:06;102483.41;;;16.98;36.08
57827;BME280;43656;57.746;11.780;2023-04-21T07:52:32;102484.66;;;16.67;36.65
57827;BME280;43656;57.746;11.780;2023-04-21T07:54:57;102482.28;;;16.57;36.62
57827;BME280;43656;57.746;11.780;2023-04-21T07:57:23;102482.09;;;16.59;37.34
57827;BME280;43656;57.746;11.780;2023-04-21T07:59:49;102481.22;;;16.58;37.39
57827;BME280;43656;57.746;11.780;2023-04-21T08:02:14;102482.50;;;16.56;37.27
57827;BME280;43656;57.746;11.780;2023-04-21T08:04:40;102479.13;;;16.54;37.17
57827;BME280;43656;57.746;11.780;2023-04-21T08:07:05;102469.72;;;16.28;37.83
57827;BME280;43656;57.746;11.780;2023-04-21T08:09:31;102486.06;;;16.35;38.69
57827;BME280;43656;57.746;11.780;2023-04-21T08:11:56;102475.16;;;16.28;38.79
57827;BME280;43656;57.746;11.780;2023-04-21T08:14:22;102477.25;;;16.26;38.47
57827;BME280;43656;57.746;11.780;2023-04-21T08:16:47;102471.38;;;16.23;38.75
57827;BME280;43656;57.746;11.780;2023-04-21T08:19:13;102464.94;;;16.30;38.48
57827;BME280;43656;57.746;11.780;2023-04-21T08:21:38;102473.09;;;16.30;38.64
57827;BME280;43656;57.746;11.780;2023-04-21T08:24:04;102471.09;;;16.17;38.64
57827;BME280;43656;57.746;11.780;2023-04-21T08:26:31;102466.31;;;16.19;38.38
57827;BME280;43656;57.746;11.780;2023-04-21T08:28:58;102463.28;;;16.08;38.34
57827;BME280;43656;57.746;11.780;2023-04-21T08:31:24;102449.41;;;15.96;39.18
57827;BME280;43656;57.746;11.780;2023-04-21T08:33:50;102424.19;;;15.81;38.94
57827;BME280;43656;57.746;11.780;2023-04-21T08:36:15;102458.91;;;16.07;39.49
57827;BME280;43656;57.746;11.780;2023-04-21T08:38:44;102450.53;;;16.08;39.15
57827;BME280;43656;57.746;11.780;2023-04-21T08:41:09;102450.81;;;15.92;39.16
57827;BME280;43656;57.746;11.780;2023-04-21T08:43:35;102446.41;;;15.91;38.55
57827;BME280;43656;57.746;11.780;2023-04-21T08:46:06;102438.06;;;15.92;37.94
57827;BME280;43656;57.746;11.780;2023-04-21T08:48:35;102441.31;;;16.03;38.58
57827;BME280;43656;57.746;11.780;2023-04-21T08:51:01;102445.09;;;16.08;38.19
57827;BME280;43656;57.746;11.780;2023-04-21T08:53:27;102444.53;;;16.13;38.62
57827;BME280;43656;57.746;11.780;2023-04-21T08:55:54;102446.75;;;15.81;39.51
57827;BME280;43656;57.746;11.780;2023-04-21T08:58:20;102427.06;;;15.58;39.06
57827;BME280;43656;57.746;11.780;2023-04-21T09:00:47;102444.72;;;15.68;39.16
57827;BME280;43656;57.746;11.780;2023-04-21T09:03:13;102445.47;;;15.77;38.25
57827;BME280;43656;57.746;11.780;2023-04-21T09:05:56;102438.06;;;15.92;38.54
57827;BME280;43656;57.746;11.780;2023-04-21T09:08:21;102437.56;;;15.82;38.82
57827;BME280;43656;57.746;11.780;2023-04-21T09:10:49;102434.38;;;15.79;40.21
57827;BME280;43656;57.746;11.780;2023-04-21T09:13:16;102433.69;;;15.70;40.16
57827;BME280;43656;57.746;11.780;2023-04-21T09:15:48;102436.91;;;16.02;39.83
57827;BME280;43656;57.746;11.780;2023-04-21T09:18:17;102432.31;;;16.02;41.64
57827;BME280;43656;57.746;11.780;2023-04-21T09:20:44;102433.56;;;16.00;42.27
57827;BME280;43656;57.746;11.780;2023-04-21T09:23:10;102440.22;;;15.97;41.83
57827;BME280;43656;57.746;11.780;2023-04-21T09:25:40;102434.47;;;16.07;40.59
57827;BME280;43656;57.746;11.780;2023-04-21T09:28:11;102432.34;;;16.30;39.03
57827;BME280;43656;57.746;11.780;2023-04-21T09:30:40;102430.81;;;16.49;38.14
57827;BME280;43656;57.746;11.780;2023-04-21T09:33:07;102424.16;;;16.58;37.52
57827;BME280;43656;57.746;11.780;2023-04-21T09:35:36;102419.81;;;16.64;37.33
57827;BME280;43656;57.746;11.780;2023-04-21T09:38:09;102429.03;;;16.63;37.34
57827;BME280;43656;57.746;11.780;2023-04-21T09:40:34;102419.09;;;16.77;37.01
57827;BME280;43656;57.746;11.780;2023-04-21T09:43:00;102419.34;;;16.88;36.82
57827;BME280;43656;57.746;11.780;2023-04-21T09:45:27;102413.09;;;16.95;37.11
57827;BME280;43656;57.746;11.780;2023-04-21T09:47:56;102407.41;;;16.83;37.00
57827;BME280;43656;57.746;11.780;2023-04-21T09:50:23;102396.16;;;16.93;37.11
57827;BME280;43656;57.746;11.780;2023-04-21T09:52:53;102385.69;;;16.89;36.86
57827;BME280;43656;57.746;11.780;2023-04-21T09:55:28;102381.34;;;17.02;36.61
57827;BME280;43656;57.746;11.780;2023-04-21T09:57:57;102393.16;;;17.22;36.11
57827;BME280;43656;57.746;11.780;2023-04-21T10:00:25;102386.41;;;17.18;35.88
57827;BME280;43656;57.746;11.780;2023-04-21T10:02:57;102380.00;;;17.46;35.58
57827;BME280;43656;57.746;11.780;2023-04-21T10:05:22;102389.22;;;17.51;35.66
57827;BME280;43656;57.746;11.780;2023-04-21T10:07:48;102383.34;;;17.48;35.21
57827;BME280;43656;57.746;11.780;2023-04-21T10:10:26;102378.69;;;17.28;35.82
57827;BME280;43656;57.746;11.780;2023-04-21T10:12:52;102378.56;;;16.88;37.61
57827;BME280;43656;57.746;11.780;2023-04-21T10:15:44;102381.16;;;17.03;37.91
57827;BME280;43656;57.746;11.780;2023-04-21T10:18:15;102367.69;;;16.88;38.48
57827;BME280;43656;57.746;11.780;2023-04-21T10:21:00;102384.91;;;16.67;41.91
57827;BME280;43656;57.746;11.780;2023-04-21T10:36:30;102375.88;;;15.69;44.53
57827;BME280;43656;57.746;11.780;2023-04-21T10:39:00;102373.44;;;15.60;43.84
57827;BME280;43656;57.746;11.780;2023-04-21T10:41:31;102364.75;;;15.49;43.71
57827;BME280;43656;57.746;11.780;2023-04-21T10:43:57;102362.31;;;15.69;42.79
57827;BME280;43656;57.746;11.780;2023-04-21T10:46:34;102359.22;;;16.01;42.46
57827;BME280;43656;57.746;11.780;2023-04-21T10:57:18;102338.28;;;16.23;39.74
57827;BME280;43656;57.746;11.780;2023-04-21T10:59:45;102343.88;;;16.21;39.70
57827;BME280;43656;57.746;11.780;2023-04-21T11:02:15;102336.63;;;16.28;40.38
57827;BME280;43656;57.746;11.780;2023-04-21T11:04:41;102339.06;;;16.16;40.22
57827;BME280;43656;57.746;11.780;2023-04-21T11:07:24;102326.34;;;16.65;40.01
57827;BME280;43656;57.746;11.780;2023-04-21T11:10:01;102334.66;;;16.98;38.94
57827;BME280;43656;57.746;11.780;2023-04-21T11:12:29;102320.75;;;16.73;37.81
57827;BME280;43656;57.746;11.780;2023-04-21T11:14:55;102318.69;;;16.75;37.98
57827;BME280;43656;57.746;11.780;2023-04-21T11:17:21;102315.56;;;16.78;37.64
57827;BME280;43656;57.746;11.780;2023-04-21T11:19:53;102305.44;;;17.13;37.56
57827;BME280;43656;57.746;11.780;2023-04-21T11:22:21;102312.81;;;17.40;37.03
57827;BME280;43656;57.746;11.780;2023-04-21T11:24:49;102309.81;;;17.08;37.16
57827;BME280;43656;57.746;11.780;2023-04-21T11:27:15;102310.06;;;17.20;37.37
57827;BME280;43656;57.746;11.780;2023-04-21T11:29:46;102308.78;;;17.09;38.25
57827;BME280;43656;57.746;11.780;2023-04-21T11:32:12;102306.72;;;16.63;38.72
57827;BME280;43656;57.746;11.780;2023-04-21T11:34:38;102288.91;;;16.19;38.76
57827;BME280;43656;57.746;11.780;2023-04-21T11:37:06;102283.13;;;16.29;38.76
57827;BME280;43656;57.746;11.780;2023-04-21T11:39:31;102301.31;;;16.28;39.02
57827;BME280;43656;57.746;11.780;2023-04-21T11:41:57;102276.25;;;16.26;38.65
57827;BME280;43656;57.746;11.780;2023-04-21T11:44:38;102266.78;;;16.22;38.99
57827;BME280;43656;57.746;11.780;2023-04-21T11:47:18;102290.31;;;16.43;38.88
57827;BME280;43656;57.746;11.780;2023-04-21T11:52:09;102282.94;;;16.30;42.15
57827;BME280;43656;57.746;11.780;2023-04-21T11:54:35;102277.19;;;16.12;43.19
57827;BME280;43656;57.746;11.780;2023-04-21T11:57:00;102266.16;;;15.85;46.35
57827;BME280;43656;57.746;11.780;2023-04-21T11:59:26;102273.88;;;15.82;49.52
57827;BME280;43656;57.746;11.780;2023-04-21T12:01:54;102275.00;;;15.94;47.59
57827;BME280;43656;57.746;11.780;2023-04-21T12:04:21;102275.44;;;15.97;47.38
57827;BME280;43656;57.746;11.780;2023-04-21T12:06:58;102264.25;;;16.14;46.69
57827;BME280;43656;57.746;11.780;2023-04-21T12:09:24;102244.34;;;16.00;47.82
57827;BME280;43656;57.746;11.780;2023-04-21T12:11:52;102259.72;;;15.86;51.16
57827;BME280;43656;57.746;11.780;2023-04-21T12:14:22;102258.66;;;15.87;49.39
57827;BME280;43656;57.746;11.780;2023-04-21T12:16:49;102264.06;;;15.59;51.57
57827;BME280;43656;57.746;11.780;2023-04-21T12:19:23;102262.28;;;15.45;51.77
57827;BME280;43656;57.746;11.780;2023-04-21T12:21:54;102253.03;;;15.61;48.71
57827;BME280;43656;57.746;11.780;2023-04-21T12:24:20;102256.25;;;15.71;47.79
57827;BME280;43656;57.746;11.780;2023-04-21T12:26:46;102254.16;;;15.66;49.48
57827;BME280;43656;57.746;11.780;2023-04-21T12:29:12;102246.94;;;15.59;49.84
57827;BME280;43656;57.746;11.780;2023-04-21T12:31:37;102242.72;;;15.78;49.40
57827;BME280;43656;57.746;11.780;2023-04-21T12:34:03;102243.75;;;15.70;47.96
57827;BME280;43656;57.746;11.780;2023-04-21T12:36:29;102237.31;;;15.78;49.38
57827;BME280;43656;57.746;11.780;2023-04-21T12:38:55;102242.78;;;15.63;51.27
57827;BME280;43656;57.746;11.780;2023-04-21T12:41:20;102245.66;;;15.55;53.75
57827;BME280;43656;57.746;11.780;2023-04-21T12:43:46;102235.38;;;15.22;55.41
57827;BME280;43656;57.746;11.780;2023-04-21T12:46:11;102243.50;;;15.43;52.77
57827;BME280;43656;57.746;11.780;2023-04-21T12:48:36;102237.56;;;15.61;52.26
57827;BME280;43656;57.746;11.780;2023-04-21T12:51:02;102234.66;;;15.63;51.89
57827;BME280;43656;57.746;11.780;2023-04-21T12:53:27;102227.91;;;15.73;51.76
57827;BME280;43656;57.746;11.780;2023-04-21T12:55:53;102224.44;;;15.65;52.21
57827;BME280;43656;57.746;11.780;2023-04-21T12:58:18;102229.22;;;15.84;52.42
57827;BME280;43656;57.746;11.780;2023-04-21T13:00:44;102222.13;;;15.83;52.41
57827;BME280;43656;57.746;11.780;2023-04-21T13:03:09;102215.56;;;15.71;51.86
57827;BME280;43656;57.746;11.780;2023-04-21T13:05:35;102208.50;;;15.77;52.89